sensor_id;sensor_type;location;lat;lon;timestamp;P1;durP1;ratioP1;P2;durP2;ratioP2
68680;SDS011;55836;49.858;6.756;2023-09-19T00:00:23;3.90;;;3.50;;
68680;SDS011;55836;49.858;6.756;2023-09-19T00:02:54;5.30;;;3.80;;
68680;SDS011;55836;49.858;6.756;2023-09-19T00:05:26;5.60;;;4.40;;
68680;SDS011;55836;49.858;6.756;2023-09-19T00:07:54;6.13;;;4.30;;
68680;SDS011;55836;49.858;6.756;2023-09-19T00:10:27;5.63;;;4.20;;
68680;SDS011;55836;49.858;6.756;2023-09-19T00:12:56;6.53;;;4.23;;
68680;SDS011;55836;49.858;6.756;2023-09-19T00:15:30;5.93;;;3.87;;
68680;SDS011;55836;49.858;6.756;2023-09-19T00:17:58;7.93;;;3.97;;
68680;SDS011;55836;49.858;6.756;2023-09-19T00:20:24;5.73;;;4.17;;
68680;SDS011;55836;49.858;6.756;2023-09-19T00:22:50;5.07;;;4.00;;
68680;SDS011;55836;49.858;6.756;2023-09-19T00:25:19;7.57;;;4.07;;
68680;SDS011;55836;49.858;6.756;2023-09-19T00:27:45;7.47;;;4.33;;
68680;SDS011;55836;49.858;6.756;2023-09-19T00:30:13;7.63;;;3.83;;
68680;SDS011;55836;49.858;6.756;2023-09-19T00:32:44;4.93;;;3.70;;
68680;SDS011;55836;49.858;6.756;2023-09-19T00:35:12;7.20;;;4.57;;
68680;SDS011;55836;49.858;6.756;2023-09-19T00:37:40;5.80;;;4.20;;
68680;SDS011;55836;49.858;6.756;2023-09-19T00:40:09;8.17;;;4.20;;
68680;SDS011;55836;49.858;6.756;2023-09-19T00:42:40;6.17;;;3.87;;
68680;SDS011;55836;49.858;6.756;2023-09-19T00:45:13;9.60;;;4.70;;
68680;SDS011;55836;49.858;6.756;2023-09-19T00:47:39;6.77;;;4.60;;
68680;SDS011;55836;49.858;6.756;2023-09-19T00:50:11;7.90;;;4.20;;
68680;SDS011;55836;49.858;6.756;2023-09-19T00:52:39;6.30;;;3.87;;
68680;SDS011;55836;49.858;6.756;2023-09-19T00:55:07;5.67;;;3.97;;
68680;SDS011;55836;49.858;6.756;2023-09-19T00:57:34;11.43;;;4.83;;
68680;SDS011;55836;49.858;6.756;2023-09-19T01:00:01;7.77;;;4.13;;
68680;SDS011;55836;49.858;6.756;2023-09-19T01:02:34;8.23;;;4.47;;
68680;SDS011;55836;49.858;6.756;2023-09-19T01:05:00;6.97;;;4.20;;
68680;SDS011;55836;49.858;6.756;2023-09-19T01:07:27;7.80;;;4.40;;
68680;SDS011;55836;49.858;6.756;2023-09-19T01:09:58;9.63;;;4.57;;
68680;SDS011;55836;49.858;6.756;2023-09-19T01:13:09;9.50;;;4.53;;
68680;SDS011;55836;49.858;6.756;2023-09-19T01:20:51;7.27;;;4.00;;
68680;SDS011;55836;49.858;6.756;2023-09-19T01:23:59;8.30;;;4.00;;
68680;SDS011;55836;49.858;6.756;2023-09-19T01:26:45;7.70;;;3.90;;
68680;SDS011;55836;49.858;6.756;2023-09-19T01:29:38;9.37;;;4.30;;
68680;SDS011;55836;49.858;6.756;2023-09-19T01:32:06;6.97;;;4.40;;
68680;SDS011;55836;49.858;6.756;2023-09-19T01:37:29;9.27;;;4.73;;
68680;SDS011;55836;49.858;6.756;2023-09-19T01:40:00;7.20;;;4.10;;
68680;SDS011;55836;49.858;6.756;2023-09-19T01:45:27;7.97;;;4.33;;
68680;SDS011;55836;49.858;6.756;2023-09-19T01:48:14;7.03;;;4.27;;
68680;SDS011;55836;49.858;6.756;2023-09-19T01:51:00;6.07;;;4.27;;
68680;SDS011;55836;49.858;6.756;2023-09-19T01:56:21;7.10;;;4.07;;
68680;SDS011;55836;49.858;6.756;2023-09-19T01:58:53;8.10;;;4.90;;
68680;SDS011;55836;49.858;6.756;2023-09-19T02:01:24;9.40;;;4.20;;
68680;SDS011;55836;49.858;6.756;2023-09-19T02:03:51;6.80;;;3.90;;
68680;SDS011;55836;49.858;6.756;2023-09-19T02:06:18;7.57;;;4.07;;
68680;SDS011;55836;49.858;6.756;2023-09-19T02:08:44;8.73;;;4.53;;
68680;SDS011;55836;49.858;6.756;2023-09-19T02:11:11;7.77;;;4.57;;
68680;SDS011;55836;49.858;6.756;2023-09-19T02:13:38;13.37;;;4.90;;
68680;SDS011;55836;49.858;6.756;2023-09-19T02:16:03;8.47;;;5.07;;
68680;SDS011;55836;49.858;6.756;2023-09-19T02:18:29;7.23;;;4.97;;
68680;SDS011;55836;49.858;6.756;2023-09-19T02:20:55;11.47;;;4.83;;
68680;SDS011;55836;49.858;6.756;2023-09-19T02:23:23;6.83;;;4.43;;
68680;SDS011;55836;49.858;6.756;2023-09-19T02:25:53;8.80;;;4.50;;
68680;SDS011;55836;49.858;6.756;2023-09-19T02:28:19;10.80;;;4.90;;
68680;SDS011;55836;49.858;6.756;2023-09-19T02:30:47;7.33;;;4.47;;
68680;SDS011;55836;49.858;6.756;2023-09-19T02:33:13;5.77;;;4.50;;
68680;SDS011;55836;49.858;6.756;2023-09-19T02:35:39;11.20;;;4.97;;
68680;SDS011;55836;49.858;6.756;2023-09-19T02:38:05;8.03;;;4.43;;
68680;SDS011;55836;49.858;6.756;2023-09-19T02:40:32;8.77;;;4.60;;
68680;SDS011;55836;49.858;6.756;2023-09-19T02:43:00;7.90;;;4.13;;
68680;SDS011;55836;49.858;6.756;2023-09-19T02:45:27;9.57;;;4.03;;
68680;SDS011;55836;49.858;6.756;2023-09-19T02:47:53;11.27;;;4.23;;
68680;SDS011;55836;49.858;6.756;2023-09-19T02:50:19;6.87;;;3.47;;
68680;SDS011;55836;49.858;6.756;2023-09-19T02:52:45;6.47;;;4.23;;
68680;SDS011;55836;49.858;6.756;2023-09-19T02:55:15;10.63;;;4.37;;
68680;SDS011;55836;49.858;6.756;2023-09-19T02:57:51;9.83;;;4.53;;
68680;SDS011;55836;49.858;6.756;2023-09-19T03:00:19;8.83;;;4.83;;
68680;SDS011;55836;49.858;6.756;2023-09-19T03:02:46;10.87;;;4.33;;
68680;SDS011;55836;49.858;6.756;2023-09-19T03:05:15;6.03;;;4.17;;
68680;SDS011;55836;49.858;6.756;2023-09-19T03:07:41;11.43;;;5.00;;
68680;SDS011;55836;49.858;6.756;2023-09-19T03:10:08;9.20;;;5.20;;
68680;SDS011;55836;49.858;6.756;2023-09-19T03:12:34;17.47;;;5.00;;
68680;SDS011;55836;49.858;6.756;2023-09-19T03:15:00;12.47;;;5.10;;
68680;SDS011;55836;49.858;6.756;2023-09-19T03:17:26;8.73;;;4.60;;
68680;SDS011;55836;49.858;6.756;2023-09-19T03:19:52;13.47;;;5.10;;
68680;SDS011;55836;49.858;6.756;2023-09-19T03:22:19;8.17;;;5.20;;
68680;SDS011;55836;49.858;6.756;2023-09-19T03:24:44;9.30;;;4.60;;
68680;SDS011;55836;49.858;6.756;2023-09-19T03:27:11;7.90;;;4.67;;
68680;SDS011;55836;49.858;6.756;2023-09-19T03:29:39;8.77;;;5.10;;
68680;SDS011;55836;49.858;6.756;2023-09-19T03:32:04;12.63;;;5.93;;
68680;SDS011;55836;49.858;6.756;2023-09-19T03:34:30;5.30;;;4.60;;
68680;SDS011;55836;49.858;6.756;2023-09-19T03:36:59;9.10;;;5.27;;
68680;SDS011;55836;49.858;6.756;2023-09-19T03:39:25;10.97;;;4.63;;
68680;SDS011;55836;49.858;6.756;2023-09-19T03:41:50;9.60;;;5.10;;
68680;SDS011;55836;49.858;6.756;2023-09-19T03:44:16;9.23;;;4.83;;
68680;SDS011;55836;49.858;6.756;2023-09-19T03:46:41;9.47;;;5.00;;
68680;SDS011;55836;49.858;6.756;2023-09-19T03:49:07;11.67;;;5.13;;
68680;SDS011;55836;49.858;6.756;2023-09-19T03:51:34;12.60;;;4.93;;
68680;SDS011;55836;49.858;6.756;2023-09-19T03:53:59;10.50;;;5.30;;
68680;SDS011;55836;49.858;6.756;2023-09-19T03:56:25;9.40;;;5.13;;
68680;SDS011;55836;49.858;6.756;2023-09-19T03:58:50;8.70;;;4.67;;
68680;SDS011;55836;49.858;6.756;2023-09-19T04:01:16;9.07;;;4.07;;
68680;SDS011;55836;49.858;6.756;2023-09-19T04:03:43;9.90;;;4.50;;
68680;SDS011;55836;49.858;6.756;2023-09-19T04:06:16;11.77;;;4.80;;
68680;SDS011;55836;49.858;6.756;2023-09-19T04:08:42;11.73;;;5.43;;
68680;SDS011;55836;49.858;6.756;2023-09-19T04:11:09;7.33;;;4.07;;
68680;SDS011;55836;49.858;6.756;2023-09-19T04:13:35;8.97;;;4.13;;
68680;SDS011;55836;49.858;6.756;2023-09-19T04:16:01;7.23;;;4.20;;
68680;SDS011;55836;49.858;6.756;2023-09-19T04:18:29;8.40;;;4.60;;
68680;SDS011;55836;49.858;6.756;2023-09-19T04:20:57;14.77;;;4.30;;
68680;SDS011;55836;49.858;6.756;2023-09-19T04:23:23;8.97;;;5.00;;
68680;SDS011;55836;49.858;6.756;2023-09-19T04:25:49;8.53;;;3.90;;
68680;SDS011;55836;49.858;6.756;2023-09-19T04:28:15;8.70;;;4.47;;
68680;SDS011;55836;49.858;6.756;2023-09-19T04:30:41;6.00;;;4.13;;
68680;SDS011;55836;49.858;6.756;2023-09-19T04:33:07;10.53;;;4.57;;
68680;SDS011;55836;49.858;6.756;2023-09-19T04:35:33;10.33;;;4.20;;
68680;SDS011;55836;49.858;6.756;2023-09-19T04:38:00;11.20;;;4.37;;
68680;SDS011;55836;49.858;6.756;2023-09-19T04:40:26;9.50;;;4.13;;
68680;SDS011;55836;49.858;6.756;2023-09-19T04:42:54;9.80;;;4.13;;
68680;SDS011;55836;49.858;6.756;2023-09-19T04:45:27;8.50;;;4.17;;
68680;SDS011;55836;49.858;6.756;2023-09-19T04:47:53;10.00;;;4.77;;
68680;SDS011;55836;49.858;6.756;2023-09-19T04:50:19;9.43;;;4.30;;
68680;SDS011;55836;49.858;6.756;2023-09-19T04:52:48;11.30;;;4.30;;
68680;SDS011;55836;49.858;6.756;2023-09-19T04:55:16;12.03;;;4.43;;
68680;SDS011;55836;49.858;6.756;2023-09-19T04:57:45;9.87;;;4.60;;
68680;SDS011;55836;49.858;6.756;2023-09-19T05:00:13;7.10;;;4.40;;
68680;SDS011;55836;49.858;6.756;2023-09-19T05:02:43;11.83;;;4.57;;
68680;SDS011;55836;49.858;6.756;2023-09-19T05:05:09;11.77;;;4.80;;
68680;SDS011;55836;49.858;6.756;2023-09-19T05:07:42;10.47;;;4.60;;
68680;SDS011;55836;49.858;6.756;2023-09-19T05:10:09;8.47;;;4.10;;
68680;SDS011;55836;49.858;6.756;2023-09-19T05:12:35;9.27;;;5.00;;
68680;SDS011;55836;49.858;6.756;2023-09-19T05:15:07;9.77;;;4.30;;
68680;SDS011;55836;49.858;6.756;2023-09-19T05:17:33;8.83;;;4.40;;
68680;SDS011;55836;49.858;6.756;2023-09-19T05:20:00;7.27;;;4.13;;
68680;SDS011;55836;49.858;6.756;2023-09-19T05:22:39;11.40;;;4.30;;
68680;SDS011;55836;49.858;6.756;2023-09-19T05:25:06;10.43;;;4.70;;
68680;SDS011;55836;49.858;6.756;2023-09-19T05:27:32;8.47;;;4.43;;
68680;SDS011;55836;49.858;6.756;2023-09-19T05:29:58;10.40;;;4.73;;
68680;SDS011;55836;49.858;6.756;2023-09-19T05:32:24;9.17;;;4.13;;
68680;SDS011;55836;49.858;6.756;2023-09-19T05:34:50;8.10;;;3.90;;
68680;SDS011;55836;49.858;6.756;2023-09-19T05:37:21;8.53;;;4.50;;
68680;SDS011;55836;49.858;6.756;2023-09-19T05:39:48;11.17;;;4.83;;
68680;SDS011;55836;49.858;6.756;2023-09-19T05:42:14;9.87;;;4.00;;
68680;SDS011;55836;49.858;6.756;2023-09-19T05:44:39;7.77;;;3.70;;
68680;SDS011;55836;49.858;6.756;2023-09-19T05:47:05;9.97;;;4.10;;
68680;SDS011;55836;49.858;6.756;2023-09-19T05:49:33;11.97;;;4.70;;
68680;SDS011;55836;49.858;6.756;2023-09-19T05:52:05;9.37;;;3.77;;
68680;SDS011;55836;49.858;6.756;2023-09-19T05:54:31;10.27;;;4.10;;
68680;SDS011;55836;49.858;6.756;2023-09-19T05:56:59;9.07;;;4.30;;
68680;SDS011;55836;49.858;6.756;2023-09-19T05:59:25;15.33;;;4.77;;
68680;SDS011;55836;49.858;6.756;2023-09-19T06:01:50;8.27;;;4.23;;
68680;SDS011;55836;49.858;6.756;2023-09-19T06:04:17;11.23;;;4.80;;
68680;SDS011;55836;49.858;6.756;2023-09-19T06:06:44;11.37;;;4.60;;
68680;SDS011;55836;49.858;6.756;2023-09-19T06:09:10;8.03;;;4.30;;
68680;SDS011;55836;49.858;6.756;2023-09-19T06:11:35;9.70;;;4.30;;
68680;SDS011;55836;49.858;6.756;2023-09-19T06:14:02;11.43;;;4.30;;
68680;SDS011;55836;49.858;6.756;2023-09-19T06:16:28;11.63;;;4.20;;
68680;SDS011;55836;49.858;6.756;2023-09-19T06:18:54;10.70;;;4.30;;
68680;SDS011;55836;49.858;6.756;2023-09-19T06:21:21;10.23;;;4.40;;
68680;SDS011;55836;49.858;6.756;2023-09-19T06:23:47;9.97;;;4.33;;
68680;SDS011;55836;49.858;6.756;2023-09-19T06:26:13;8.37;;;3.83;;
68680;SDS011;55836;49.858;6.756;2023-09-19T06:28:39;10.00;;;4.07;;
68680;SDS011;55836;49.858;6.756;2023-09-19T06:31:05;10.97;;;4.13;;
68680;SDS011;55836;49.858;6.756;2023-09-19T06:33:34;9.57;;;4.73;;
68680;SDS011;55836;49.858;6.756;2023-09-19T06:36:03;12.00;;;4.80;;
68680;SDS011;55836;49.858;6.756;2023-09-19T06:38:29;11.50;;;4.17;;
68680;SDS011;55836;49.858;6.756;2023-09-19T06:40:56;14.87;;;4.27;;
68680;SDS011;55836;49.858;6.756;2023-09-19T06:43:23;13.77;;;4.30;;
68680;SDS011;55836;49.858;6.756;2023-09-19T06:45:49;10.17;;;4.50;;
68680;SDS011;55836;49.858;6.756;2023-09-19T06:48:16;16.97;;;5.20;;
68680;SDS011;55836;49.858;6.756;2023-09-19T06:50:42;12.93;;;4.87;;
68680;SDS011;55836;49.858;6.756;2023-09-19T06:53:09;9.93;;;4.43;;
68680;SDS011;55836;49.858;6.756;2023-09-19T06:55:35;14.80;;;4.33;;
68680;SDS011;55836;49.858;6.756;2023-09-19T06:58:01;17.07;;;4.93;;
68680;SDS011;55836;49.858;6.756;2023-09-19T07:00:31;12.97;;;4.27;;
68680;SDS011;55836;49.858;6.756;2023-09-19T07:03:02;12.87;;;4.67;;
68680;SDS011;55836;49.858;6.756;2023-09-19T07:05:29;10.13;;;4.40;;
68680;SDS011;55836;49.858;6.756;2023-09-19T07:07:56;11.57;;;4.17;;
68680;SDS011;55836;49.858;6.756;2023-09-19T07:10:26;14.10;;;4.33;;
68680;SDS011;55836;49.858;6.756;2023-09-19T07:12:58;14.47;;;4.77;;
68680;SDS011;55836;49.858;6.756;2023-09-19T07:15:25;11.90;;;4.60;;
68680;SDS011;55836;49.858;6.756;2023-09-19T07:17:54;14.57;;;4.80;;
68680;SDS011;55836;49.858;6.756;2023-09-19T07:20:21;14.50;;;4.47;;
68680;SDS011;55836;49.858;6.756;2023-09-19T07:22:48;15.50;;;4.47;;
68680;SDS011;55836;49.858;6.756;2023-09-19T07:25:15;13.23;;;4.50;;
68680;SDS011;55836;49.858;6.756;2023-09-19T07:27:41;15.33;;;5.00;;
68680;SDS011;55836;49.858;6.756;2023-09-19T07:30:07;12.00;;;4.57;;
68680;SDS011;55836;49.858;6.756;2023-09-19T07:32:34;15.37;;;4.47;;
68680;SDS011;55836;49.858;6.756;2023-09-19T07:35:03;11.77;;;4.30;;
68680;SDS011;55836;49.858;6.756;2023-09-19T07:37:30;18.30;;;5.23;;
68680;SDS011;55836;49.858;6.756;2023-09-19T07:39:58;15.13;;;5.33;;
68680;SDS011;55836;49.858;6.756;2023-09-19T07:42:25;11.93;;;3.93;;
68680;SDS011;55836;49.858;6.756;2023-09-19T07:44:54;14.97;;;5.00;;
68680;SDS011;55836;49.858;6.756;2023-09-19T07:47:20;12.43;;;4.40;;
68680;SDS011;55836;49.858;6.756;2023-09-19T07:49:49;14.70;;;4.30;;
68680;SDS011;55836;49.858;6.756;2023-09-19T07:52:15;20.83;;;5.13;;
68680;SDS011;55836;49.858;6.756;2023-09-19T07:54:41;10.03;;;3.87;;
68680;SDS011;55836;49.858;6.756;2023-09-19T07:57:09;14.03;;;4.13;;
68680;SDS011;55836;49.858;6.756;2023-09-19T07:59:35;9.83;;;3.60;;
68680;SDS011;55836;49.858;6.756;2023-09-19T08:02:01;15.57;;;4.27;;
68680;SDS011;55836;49.858;6.756;2023-09-19T08:04:29;12.83;;;4.53;;
68680;SDS011;55836;49.858;6.756;2023-09-19T08:06:59;11.97;;;4.13;;
68680;SDS011;55836;49.858;6.756;2023-09-19T08:09:25;10.90;;;4.10;;
68680;SDS011;55836;49.858;6.756;2023-09-19T08:11:51;10.50;;;4.00;;
68680;SDS011;55836;49.858;6.756;2023-09-19T08:14:16;11.33;;;3.90;;
68680;SDS011;55836;49.858;6.756;2023-09-19T08:16:42;14.87;;;4.20;;
68680;SDS011;55836;49.858;6.756;2023-09-19T08:19:09;7.23;;;3.20;;
68680;SDS011;55836;49.858;6.756;2023-09-19T08:21:35;8.90;;;3.20;;
68680;SDS011;55836;49.858;6.756;2023-09-19T08:24:01;10.23;;;3.40;;
68680;SDS011;55836;49.858;6.756;2023-09-19T08:26:30;13.23;;;4.50;;
68680;SDS011;55836;49.858;6.756;2023-09-19T08:28:56;9.77;;;3.63;;
68680;SDS011;55836;49.858;6.756;2023-09-19T08:31:22;13.93;;;4.10;;
68680;SDS011;55836;49.858;6.756;2023-09-19T08:33:48;12.23;;;3.60;;
68680;SDS011;55836;49.858;6.756;2023-09-19T08:36:16;8.67;;;2.83;;
68680;SDS011;55836;49.858;6.756;2023-09-19T08:38:41;9.60;;;2.93;;
68680;SDS011;55836;49.858;6.756;2023-09-19T08:41:07;9.90;;;3.43;;
68680;SDS011;55836;49.858;6.756;2023-09-19T08:43:34;6.73;;;3.10;;
68680;SDS011;55836;49.858;6.756;2023-09-19T08:46:10;10.83;;;2.97;;
68680;SDS011;55836;49.858;6.756;2023-09-19T08:48:44;8.40;;;2.70;;
68680;SDS011;55836;49.858;6.756;2023-09-19T08:51:41;7.73;;;2.80;;
68680;SDS011;55836;49.858;6.756;2023-09-19T08:54:12;10.80;;;2.83;;
68680;SDS011;55836;49.858;6.756;2023-09-19T08:56:51;8.73;;;3.30;;
68680;SDS011;55836;49.858;6.756;2023-09-19T08:59:21;6.33;;;2.77;;
68680;SDS011;55836;49.858;6.756;2023-09-19T09:01:50;10.07;;;2.90;;
68680;SDS011;55836;49.858;6.756;2023-09-19T09:04:19;9.87;;;2.83;;
68680;SDS011;55836;49.858;6.756;2023-09-19T09:06:45;10.03;;;2.43;;
68680;SDS011;55836;49.858;6.756;2023-09-19T09:09:15;11.37;;;2.47;;
68680;SDS011;55836;49.858;6.756;2023-09-19T09:11:42;9.93;;;3.33;;
68680;SDS011;55836;49.858;6.756;2023-09-19T09:14:07;10.63;;;3.70;;
68680;SDS011;55836;49.858;6.756;2023-09-19T09:16:33;12.87;;;3.17;;
68680;SDS011;55836;49.858;6.756;2023-09-19T09:18:59;5.17;;;2.20;;
68680;SDS011;55836;49.858;6.756;2023-09-19T09:21:26;5.47;;;2.40;;
68680;SDS011;55836;49.858;6.756;2023-09-19T09:23:52;8.37;;;2.67;;
68680;SDS011;55836;49.858;6.756;2023-09-19T09:29:04;10.87;;;2.43;;
68680;SDS011;55836;49.858;6.756;2023-09-19T09:31:29;11.97;;;3.53;;
68680;SDS011;55836;49.858;6.756;2023-09-19T09:33:55;7.30;;;2.40;;
68680;SDS011;55836;49.858;6.756;2023-09-19T09:36:38;6.40;;;2.37;;
68680;SDS011;55836;49.858;6.756;2023-09-19T09:39:06;11.60;;;3.03;;
68680;SDS011;55836;49.858;6.756;2023-09-19T09:41:43;9.40;;;2.77;;
68680;SDS011;55836;49.858;6.756;2023-09-19T09:44:11;7.97;;;2.30;;
68680;SDS011;55836;49.858;6.756;2023-09-19T09:46:44;11.30;;;3.10;;
68680;SDS011;55836;49.858;6.756;2023-09-19T09:49:26;6.40;;;2.17;;
68680;SDS011;55836;49.858;6.756;2023-09-19T09:52:05;6.40;;;2.13;;
68680;SDS011;55836;49.858;6.756;2023-09-19T09:54:32;7.20;;;2.30;;
68680;SDS011;55836;49.858;6.756;2023-09-19T09:57:09;7.40;;;2.57;;
68680;SDS011;55836;49.858;6.756;2023-09-19T09:59:51;9.97;;;2.87;;
68680;SDS011;55836;49.858;6.756;2023-09-19T10:02:25;6.77;;;2.30;;
68680;SDS011;55836;49.858;6.756;2023-09-19T10:04:55;10.63;;;2.57;;
68680;SDS011;55836;49.858;6.756;2023-09-19T10:07:44;6.57;;;2.37;;
68680;SDS011;55836;49.858;6.756;2023-09-19T10:10:34;6.47;;;2.60;;
68680;SDS011;55836;49.858;6.756;2023-09-19T10:13:07;8.60;;;2.23;;
68680;SDS011;55836;49.858;6.756;2023-09-19T10:15:37;6.17;;;2.57;;
68680;SDS011;55836;49.858;6.756;2023-09-19T10:18:06;6.73;;;2.23;;
68680;SDS011;55836;49.858;6.756;2023-09-19T10:20:35;7.63;;;2.30;;
68680;SDS011;55836;49.858;6.756;2023-09-19T10:23:07;8.30;;;2.23;;
68680;SDS011;55836;49.858;6.756;2023-09-19T10:25:41;5.57;;;1.97;;
68680;SDS011;55836;49.858;6.756;2023-09-19T10:28:08;13.27;;;2.90;;
68680;SDS011;55836;49.858;6.756;2023-09-19T10:30:40;7.37;;;2.90;;
68680;SDS011;55836;49.858;6.756;2023-09-19T10:33:12;6.50;;;2.23;;
68680;SDS011;55836;49.858;6.756;2023-09-19T10:35:40;8.93;;;2.37;;
68680;SDS011;55836;49.858;6.756;2023-09-19T10:38:12;7.70;;;2.27;;
68680;SDS011;55836;49.858;6.756;2023-09-19T10:40:39;6.47;;;2.30;;
68680;SDS011;55836;49.858;6.756;2023-09-19T10:43:11;8.73;;;2.93;;
68680;SDS011;55836;49.858;6.756;2023-09-19T10:45:37;6.63;;;2.40;;
68680;SDS011;55836;49.858;6.756;2023-09-19T10:48:05;8.43;;;2.13;;
68680;SDS011;55836;49.858;6.756;2023-09-19T10:50:33;7.90;;;2.33;;
68680;SDS011;55836;49.858;6.756;2023-09-19T10:53:24;4.07;;;1.60;;
68680;SDS011;55836;49.858;6.756;2023-09-19T10:55:52;8.27;;;2.10;;
68680;SDS011;55836;49.858;6.756;2023-09-19T10:58:26;5.90;;;2.20;;
68680;SDS011;55836;49.858;6.756;2023-09-19T11:00:54;7.40;;;2.10;;
68680;SDS011;55836;49.858;6.756;2023-09-19T11:03:36;4.87;;;2.30;;
68680;SDS011;55836;49.858;6.756;2023-09-19T11:06:12;8.40;;;2.00;;
68680;SDS011;55836;49.858;6.756;2023-09-19T11:14:15;5.97;;;2.07;;
68680;SDS011;55836;49.858;6.756;2023-09-19T11:30:37;5.60;;;1.70;;
68680;SDS011;55836;49.858;6.756;2023-09-19T11:46:28;3.63;;;2.00;;
68680;SDS011;55836;49.858;6.756;2023-09-19T11:49:13;4.07;;;2.00;;
68680;SDS011;55836;49.858;6.756;2023-09-19T11:51:45;5.70;;;1.47;;
68680;SDS011;55836;49.858;6.756;2023-09-19T11:54:13;4.30;;;1.93;;
68680;SDS011;55836;49.858;6.756;2023-09-19T11:56:44;3.03;;;1.50;;
68680;SDS011;55836;49.858;6.756;2023-09-19T11:59:10;4.87;;;1.70;;
68680;SDS011;55836;49.858;6.756;2023-09-19T12:01:37;4.63;;;1.80;;
68680;SDS011;55836;49.858;6.756;2023-09-19T12:04:11;4.87;;;1.67;;
68680;SDS011;55836;49.858;6.756;2023-09-19T12:06:37;6.20;;;2.17;;
68680;SDS011;55836;49.858;6.756;2023-09-19T12:09:07;4.13;;;1.80;;
68680;SDS011;55836;49.858;6.756;2023-09-19T12:11:41;4.30;;;1.53;;
68680;SDS011;55836;49.858;6.756;2023-09-19T12:14:09;3.93;;;2.33;;
68680;SDS011;55836;49.858;6.756;2023-09-19T12:16:34;6.67;;;1.60;;
68680;SDS011;55836;49.858;6.756;2023-09-19T12:19:17;6.90;;;1.80;;
68680;SDS011;55836;49.858;6.756;2023-09-19T12:21:59;4.93;;;1.57;;
68680;SDS011;55836;49.858;6.756;2023-09-19T12:24:29;3.90;;;1.60;;
68680;SDS011;55836;49.858;6.756;2023-09-19T12:27:03;3.37;;;1.47;;
68680;SDS011;55836;49.858;6.756;2023-09-19T12:29:30;2.77;;;1.70;;
68680;SDS011;55836;49.858;6.756;2023-09-19T12:31:57;4.30;;;2.07;;
68680;SDS011;55836;49.858;6.756;2023-09-19T12:34:25;3.50;;;1.87;;
68680;SDS011;55836;49.858;6.756;2023-09-19T12:37:03;3.07;;;1.80;;
68680;SDS011;55836;49.858;6.756;2023-09-19T12:40:06;4.43;;;1.77;;
68680;SDS011;55836;49.858;6.756;2023-09-19T12:42:42;7.03;;;1.93;;
68680;SDS011;55836;49.858;6.756;2023-09-19T12:45:09;3.87;;;2.00;;
68680;SDS011;55836;49.858;6.756;2023-09-19T12:47:38;3.77;;;1.70;;
68680;SDS011;55836;49.858;6.756;2023-09-19T12:52:42;5.40;;;2.20;;
68680;SDS011;55836;49.858;6.756;2023-09-19T12:55:28;5.07;;;1.57;;
68680;SDS011;55836;49.858;6.756;2023-09-19T12:58:02;5.33;;;1.60;;
68680;SDS011;55836;49.858;6.756;2023-09-19T13:00:35;8.57;;;1.77;;
68680;SDS011;55836;49.858;6.756;2023-09-19T13:08:23;3.87;;;1.73;;
68680;SDS011;55836;49.858;6.756;2023-09-19T13:11:16;3.07;;;1.87;;
68680;SDS011;55836;49.858;6.756;2023-09-19T13:16:13;3.63;;;1.73;;
68680;SDS011;55836;49.858;6.756;2023-09-19T13:18:47;6.33;;;1.77;;
68680;SDS011;55836;49.858;6.756;2023-09-19T13:21:27;4.40;;;1.77;;
68680;SDS011;55836;49.858;6.756;2023-09-19T13:23:54;5.60;;;1.60;;
68680;SDS011;55836;49.858;6.756;2023-09-19T13:26:40;3.23;;;1.53;;
68680;SDS011;55836;49.858;6.756;2023-09-19T13:29:06;3.67;;;1.73;;
68680;SDS011;55836;49.858;6.756;2023-09-19T13:31:31;3.97;;;1.80;;
68680;SDS011;55836;49.858;6.756;2023-09-19T13:33:57;5.57;;;1.53;;
68680;SDS011;55836;49.858;6.756;2023-09-19T13:36:22;3.17;;;1.93;;
68680;SDS011;55836;49.858;6.756;2023-09-19T13:38:48;4.67;;;1.50;;
68680;SDS011;55836;49.858;6.756;2023-09-19T13:41:14;4.03;;;1.70;;
68680;SDS011;55836;49.858;6.756;2023-09-19T13:43:40;3.17;;;1.60;;
68680;SDS011;55836;49.858;6.756;2023-09-19T13:46:05;3.43;;;1.43;;
68680;SDS011;55836;49.858;6.756;2023-09-19T13:48:37;2.47;;;1.50;;
68680;SDS011;55836;49.858;6.756;2023-09-19T13:51:03;3.77;;;2.07;;
68680;SDS011;55836;49.858;6.756;2023-09-19T13:53:29;3.53;;;1.70;;
68680;SDS011;55836;49.858;6.756;2023-09-19T13:55:55;5.47;;;2.97;;
68680;SDS011;55836;49.858;6.756;2023-09-19T13:58:21;6.00;;;2.80;;
68680;SDS011;55836;49.858;6.756;2023-09-19T14:00:47;2.60;;;1.67;;
68680;SDS011;55836;49.858;6.756;2023-09-19T14:03:13;5.40;;;2.13;;
68680;SDS011;55836;49.858;6.756;2023-09-19T14:05:39;4.67;;;1.80;;
68680;SDS011;55836;49.858;6.756;2023-09-19T14:08:05;3.90;;;1.60;;
68680;SDS011;55836;49.858;6.756;2023-09-19T14:10:30;3.17;;;1.60;;
68680;SDS011;55836;49.858;6.756;2023-09-19T14:12:56;3.83;;;1.50;;
68680;SDS011;55836;49.858;6.756;2023-09-19T14:15:25;6.47;;;2.30;;
68680;SDS011;55836;49.858;6.756;2023-09-19T14:17:55;4.00;;;1.70;;
68680;SDS011;55836;49.858;6.756;2023-09-19T14:20:22;3.27;;;1.53;;
68680;SDS011;55836;49.858;6.756;2023-09-19T14:22:48;2.60;;;1.37;;
68680;SDS011;55836;49.858;6.756;2023-09-19T14:25:13;9.70;;;5.80;;
68680;SDS011;55836;49.858;6.756;2023-09-19T14:27:39;8.77;;;4.27;;
68680;SDS011;55836;49.858;6.756;2023-09-19T14:30:05;7.93;;;4.40;;
68680;SDS011;55836;49.858;6.756;2023-09-19T14:32:31;6.33;;;2.40;;
68680;SDS011;55836;49.858;6.756;2023-09-19T14:34:57;2.13;;;1.30;;
68680;SDS011;55836;49.858;6.756;2023-09-19T14:37:22;2.47;;;1.30;;
68680;SDS011;55836;49.858;6.756;2023-09-19T14:39:48;3.77;;;1.37;;
68680;SDS011;55836;49.858;6.756;2023-09-19T14:42:13;4.53;;;1.30;;
68680;SDS011;55836;49.858;6.756;2023-09-19T14:44:43;5.40;;;1.33;;
68680;SDS011;55836;49.858;6.756;2023-09-19T14:47:08;3.50;;;1.70;;
68680;SDS011;55836;49.858;6.756;2023-09-19T14:49:34;2.07;;;1.33;;
68680;SDS011;55836;49.858;6.756;2023-09-19T14:52:03;3.63;;;1.40;;
68680;SDS011;55836;49.858;6.756;2023-09-19T14:54:29;2.60;;;1.37;;
68680;SDS011;55836;49.858;6.756;2023-09-19T14:56:55;2.73;;;1.37;;
68680;SDS011;55836;49.858;6.756;2023-09-19T14:59:32;5.03;;;2.10;;
68680;SDS011;55836;49.858;6.756;2023-09-19T15:01:59;2.83;;;1.57;;
68680;SDS011;55836;49.858;6.756;2023-09-19T15:04:25;3.60;;;1.40;;
68680;SDS011;55836;49.858;6.756;2023-09-19T15:06:52;3.57;;;1.50;;
68680;SDS011;55836;49.858;6.756;2023-09-19T15:09:19;4.67;;;1.53;;
68680;SDS011;55836;49.858;6.756;2023-09-19T15:11:50;1.40;;;1.30;;
68680;SDS011;55836;49.858;6.756;2023-09-19T15:14:20;4.93;;;1.50;;
68680;SDS011;55836;49.858;6.756;2023-09-19T15:16:46;1.87;;;1.27;;
68680;SDS011;55836;49.858;6.756;2023-09-19T15:19:12;2.47;;;1.20;;
68680;SDS011;55836;49.858;6.756;2023-09-19T15:21:38;3.70;;;1.60;;
68680;SDS011;55836;49.858;6.756;2023-09-19T15:24:05;4.37;;;1.30;;
68680;SDS011;55836;49.858;6.756;2023-09-19T15:26:34;5.10;;;1.90;;
68680;SDS011;55836;49.858;6.756;2023-09-19T15:29:04;2.50;;;1.50;;
68680;SDS011;55836;49.858;6.756;2023-09-19T15:31:33;6.00;;;1.60;;
68680;SDS011;55836;49.858;6.756;2023-09-19T15:33:58;5.10;;;1.57;;
68680;SDS011;55836;49.858;6.756;2023-09-19T15:36:25;4.50;;;1.43;;
68680;SDS011;55836;49.858;6.756;2023-09-19T15:41:34;3.90;;;1.43;;
68680;SDS011;55836;49.858;6.756;2023-09-19T15:44:02;2.63;;;1.40;;
68680;SDS011;55836;49.858;6.756;2023-09-19T15:46:29;2.17;;;1.27;;
68680;SDS011;55836;49.858;6.756;2023-09-19T15:48:55;2.23;;;1.50;;
68680;SDS011;55836;49.858;6.756;2023-09-19T15:51:21;5.30;;;1.73;;
68680;SDS011;55836;49.858;6.756;2023-09-19T15:53:48;2.30;;;1.50;;
68680;SDS011;55836;49.858;6.756;2023-09-19T15:56:15;4.80;;;1.43;;